Terminal Aerodrome Forecast
Issued by NWS Cleveland, OH

Home | Current Version | Previous Version | Text Only | Print | Product List | Glossary On
Versions: 1 2 3 4 5 6 7 8 9 10 11 12 13 14 15 16 17 18
000
FTUS41 KCLE 042300
TAFERI
TAF
KERI 042326Z 0500/0524 25010KT P6SM SCT050 BKN100
     FM051200 02010KT P6SM BKN045 BKN120
     FM052100 03010KT P6SM -SHRA SCT045 BKN120=

USA.gov is the U.S. government's official web portal to all federal, state and local government web resources and services.